createdAt,value
2022-09-17T00:01:06.286Z,16.33
2022-09-17T00:03:36.526Z,17.22
2022-09-17T00:06:08.721Z,14.01
2022-09-17T00:08:37.691Z,14.90
2022-09-17T00:11:13.946Z,15.59
2022-09-17T00:13:42.928Z,14.71
2022-09-17T00:16:10.727Z,16.30
2022-09-17T00:18:40.753Z,14.66
2022-09-17T00:21:16.330Z,16.42
2022-09-17T00:23:43.120Z,16.13
2022-09-17T00:26:10.172Z,15.93
2022-09-17T00:28:36.854Z,16.88
2022-09-17T00:31:10.478Z,16.60
2022-09-17T00:33:37.656Z,18.83
2022-09-17T00:36:05.616Z,17.44
2022-09-17T00:38:32.678Z,18.04
2022-09-17T00:41:00.153Z,18.38
2022-09-17T00:43:47.883Z,17.16
2022-09-17T00:46:33.316Z,16.83
2022-09-17T00:49:06.056Z,17.61
2022-09-17T00:51:39.442Z,14.59
2022-09-17T00:54:09.890Z,16.52
2022-09-17T00:56:40.416Z,17.43
2022-09-17T00:59:08.416Z,16.51
2022-09-17T01:01:35.622Z,17.98
2022-09-17T01:04:03.523Z,18.47
2022-09-17T01:06:40.856Z,18.52
2022-09-17T01:09:36.147Z,17.99
2022-09-17T01:12:40.246Z,18.13
2022-09-17T01:15:12.733Z,18.25
2022-09-17T01:18:03.305Z,17.68
2022-09-17T01:20:58.544Z,19.13
2022-09-17T01:23:43.788Z,18.52
2022-09-17T01:26:22.439Z,18.55
2022-09-17T01:29:16.526Z,19.50
2022-09-17T01:31:54.490Z,15.71
2022-09-17T01:34:53.904Z,16.30
2022-09-17T01:37:30.529Z,17.55
2022-09-17T01:40:18.447Z,16.84
2022-09-17T01:42:58.126Z,15.79
2022-09-17T01:45:31.389Z,18.06
2022-09-17T01:48:29.082Z,16.66
2022-09-17T01:50:59.562Z,18.86
2022-09-17T01:53:48.894Z,19.33
2022-09-17T01:56:19.665Z,18.41
2022-09-17T01:58:53.963Z,15.84
2022-09-17T02:01:24.989Z,17.38
2022-09-17T02:04:01.034Z,18.60
2022-09-17T02:06:33.129Z,18.29
2022-09-17T02:09:23.180Z,18.96
2022-09-17T02:11:55.703Z,18.56
2022-09-17T02:14:31.573Z,19.18
2022-09-17T02:17:07.640Z,16.33
2022-09-17T02:19:38.649Z,18.35
2022-09-17T02:22:23.053Z,16.89
2022-09-17T02:24:55.567Z,17.53
2022-09-17T02:27:35.725Z,16.74
2022-09-17T02:30:03.383Z,16.52
2022-09-17T02:32:30.354Z,15.33
2022-09-17T02:34:57.330Z,15.22
2022-09-17T02:37:24.072Z,15.75
2022-09-17T02:39:51.358Z,16.54
2022-09-17T02:42:55.890Z,16.80
2022-09-17T02:45:37.888Z,15.53
2022-09-17T02:48:52.234Z,18.14
2022-09-17T02:51:36.309Z,17.58
2022-09-17T02:54:34.966Z,18.10
2022-09-17T02:57:14.899Z,17.71
2022-09-17T03:00:14.521Z,18.03
2022-09-17T03:02:47.374Z,18.37
2022-09-17T03:05:17.226Z,17.92
2022-09-17T03:07:44.263Z,19.53
2022-09-17T03:10:11.834Z,17.82
2022-09-17T03:12:38.829Z,19.25
2022-09-17T03:15:05.905Z,18.25
2022-09-17T03:17:32.687Z,18.25
2022-09-17T03:19:59.493Z,17.58
2022-09-17T03:22:26.215Z,16.93
2022-09-17T03:24:53.081Z,18.23
2022-09-17T03:27:19.810Z,18.04
2022-09-17T03:29:46.535Z,16.05
2022-09-17T03:32:13.282Z,17.25
2022-09-17T03:34:39.996Z,17.29
2022-09-17T03:37:06.933Z,16.99
2022-09-17T03:39:33.779Z,16.91
2022-09-17T03:42:00.633Z,16.61
2022-09-17T03:44:27.313Z,17.14
2022-09-17T03:46:54.120Z,15.88
2022-09-17T03:49:20.882Z,15.24
2022-09-17T03:51:47.588Z,14.42
2022-09-17T03:54:14.298Z,14.86
2022-09-17T03:56:41.187Z,15.20
2022-09-17T03:59:07.933Z,16.89
2022-09-17T04:01:35.002Z,14.26
2022-09-17T04:04:02.682Z,14.52
2022-09-17T04:06:29.438Z,16.87
2022-09-17T04:08:57.198Z,17.73
2022-09-17T04:11:23.938Z,16.18
2022-09-17T04:13:51.037Z,15.91
2022-09-17T04:16:17.899Z,14.80
2022-09-17T04:18:44.638Z,15.11
2022-09-17T04:21:11.427Z,16.85
2022-09-17T04:23:38.103Z,15.22
2022-09-17T04:26:05.025Z,17.70
2022-09-17T04:28:31.745Z,15.67
2022-09-17T04:30:58.584Z,16.92
2022-09-17T04:33:25.747Z,15.86
2022-09-17T04:35:52.492Z,17.04
2022-09-17T04:38:20.670Z,17.19
2022-09-17T04:40:48.073Z,15.96
2022-09-17T04:43:14.877Z,17.04
2022-09-17T04:45:41.710Z,17.48
2022-09-17T04:48:08.421Z,16.96
2022-09-17T04:50:35.115Z,16.65
2022-09-17T04:53:01.846Z,16.30
2022-09-17T04:55:28.704Z,16.33
2022-09-17T04:57:55.523Z,17.30
2022-09-17T05:00:23.466Z,16.16
2022-09-17T05:02:53.162Z,16.87
2022-09-17T05:05:20.670Z,17.83
2022-09-17T05:07:47.511Z,16.60
2022-09-17T05:10:16.559Z,17.09
2022-09-17T05:12:48.817Z,15.57
2022-09-17T05:15:16.808Z,14.50
2022-09-17T05:17:43.623Z,14.49
2022-09-17T05:20:11.242Z,15.89
2022-09-17T05:22:49.760Z,15.03
2022-09-17T05:25:18.527Z,15.84
2022-09-17T05:27:45.659Z,17.06
2022-09-17T05:30:13.164Z,15.49
2022-09-17T05:32:40.823Z,14.78
2022-09-17T05:35:09.235Z,14.54
2022-09-17T05:37:36.714Z,15.47
2022-09-17T05:40:06.750Z,13.75
2022-09-17T05:42:34.065Z,14.48
2022-09-17T05:45:00.809Z,15.39
2022-09-17T05:47:27.453Z,16.00
2022-09-17T05:49:54.198Z,13.94
2022-09-17T05:52:20.901Z,15.30
2022-09-17T05:54:48.602Z,13.61
2022-09-17T05:57:16.111Z,15.78
2022-09-17T05:59:43.929Z,14.46
2022-09-17T06:02:13.966Z,16.50
2022-09-17T06:04:40.987Z,15.42
2022-09-17T06:07:09.406Z,11.70
2022-09-17T06:09:37.744Z,15.87
2022-09-17T06:12:05.557Z,15.50
2022-09-17T06:14:32.898Z,14.28
2022-09-17T06:17:00.354Z,15.66
2022-09-17T06:19:28.588Z,16.15
2022-09-17T06:21:55.742Z,16.26
2022-09-17T06:24:22.754Z,15.27
2022-09-17T06:26:49.491Z,15.34
2022-09-17T06:29:16.198Z,16.15
2022-09-17T06:31:46.215Z,13.39
2022-09-17T06:34:13.057Z,14.48
2022-09-17T06:36:40.174Z,16.19
2022-09-17T06:39:07.325Z,14.91
2022-09-17T06:41:34.266Z,15.01
2022-09-17T06:44:04.310Z,15.74
2022-09-17T06:46:31.091Z,14.78
2022-09-17T06:48:57.843Z,14.81
2022-09-17T06:51:24.613Z,13.58
2022-09-17T06:53:51.358Z,14.89
2022-09-17T06:56:18.141Z,16.14
2022-09-17T06:58:45.066Z,15.58
2022-09-17T07:01:12.899Z,13.94
2022-09-17T07:03:41.006Z,13.70
2022-09-17T07:06:11.603Z,16.39
2022-09-17T07:08:39.567Z,14.79
2022-09-17T07:11:07.128Z,12.67
2022-09-17T07:13:34.598Z,14.56
2022-09-17T07:16:03.700Z,14.09
2022-09-17T07:18:30.883Z,15.23
2022-09-17T07:21:02.752Z,14.52
2022-09-17T07:23:31.986Z,11.25
2022-09-17T07:26:00.809Z,12.73
2022-09-17T07:28:29.018Z,12.31
2022-09-17T07:30:56.327Z,12.71
2022-09-17T07:33:27.734Z,13.10
2022-09-17T07:35:54.727Z,11.32
2022-09-17T07:38:22.845Z,12.03
2022-09-17T07:40:55.806Z,12.56
2022-09-17T07:43:22.527Z,10.44
2022-09-17T07:45:49.430Z,12.99
2022-09-17T07:48:16.113Z,11.66
2022-09-17T07:50:42.802Z,14.25
2022-09-17T07:53:09.467Z,12.64
2022-09-17T07:55:36.171Z,13.49
2022-09-17T07:58:03.314Z,13.99
2022-09-17T08:00:30.242Z,14.32
2022-09-17T08:02:57.464Z,14.15
2022-09-17T08:05:24.924Z,14.32
2022-09-17T08:07:52.647Z,13.89
2022-09-17T08:10:23.192Z,13.99
2022-09-17T08:12:50.665Z,14.92
2022-09-17T08:15:18.454Z,15.29
2022-09-17T08:17:47.041Z,11.81
2022-09-17T08:20:15.710Z,15.17
2022-09-17T08:22:45.681Z,15.39
2022-09-17T08:25:14.791Z,15.63
2022-09-17T08:27:41.678Z,15.85
2022-09-17T08:30:09.388Z,16.46
2022-09-17T08:32:36.187Z,17.36
2022-09-17T08:35:03.344Z,14.00
2022-09-17T08:37:30.880Z,15.54
2022-09-17T08:39:58.421Z,13.93
2022-09-17T08:42:37.585Z,16.21
2022-09-17T08:45:09.405Z,16.18
2022-09-17T08:47:40.948Z,15.53
2022-09-17T08:50:19.307Z,15.53
2022-09-17T08:52:56.644Z,14.10
2022-09-17T08:55:44.979Z,16.14
2022-09-17T08:58:29.826Z,15.26
2022-09-17T09:01:18.222Z,15.52
2022-09-17T09:04:03.129Z,13.40
2022-09-17T09:07:02.150Z,14.74
2022-09-17T09:09:38.053Z,13.54
2022-09-17T09:12:18.687Z,17.19
2022-09-17T09:14:58.273Z,15.47
2022-09-17T09:17:32.632Z,16.89
2022-09-17T09:19:59.344Z,15.21
2022-09-17T09:22:32.140Z,14.82
2022-09-17T09:25:01.863Z,14.01
2022-09-17T09:27:32.106Z,15.62
2022-09-17T09:30:11.576Z,15.07
2022-09-17T09:33:05.459Z,13.92
2022-09-17T09:35:34.620Z,13.38
2022-09-17T09:38:31.482Z,14.72
2022-09-17T09:41:12.147Z,15.17
2022-09-17T09:44:03.777Z,15.12
2022-09-17T09:46:40.561Z,15.23
2022-09-17T09:49:30.638Z,13.13
2022-09-17T09:52:10.882Z,14.49
2022-09-17T09:55:13.330Z,14.17
2022-09-17T09:57:46.573Z,14.17
2022-09-17T10:00:37.051Z,15.21
2022-09-17T10:03:06.879Z,16.53
2022-09-17T10:05:34.078Z,16.40
2022-09-17T10:08:00.906Z,16.39
2022-09-17T10:10:27.578Z,18.01
2022-09-17T10:13:07.604Z,15.92
2022-09-17T10:15:34.591Z,17.15
2022-09-17T10:18:16.857Z,14.90
2022-09-17T10:20:50.434Z,14.78
2022-09-17T10:23:18.057Z,13.64
2022-09-17T10:25:45.354Z,15.51
2022-09-17T10:28:41.369Z,15.23
2022-09-17T10:31:10.822Z,17.69
2022-09-17T10:33:59.358Z,18.68
2022-09-17T10:36:45.809Z,17.62
2022-09-17T10:39:36.668Z,16.30
2022-09-17T10:42:06.143Z,15.60
2022-09-17T10:44:37.270Z,17.67
2022-09-17T10:47:04.195Z,17.27
2022-09-17T10:49:57.084Z,13.61
2022-09-17T10:52:34.777Z,15.48
2022-09-17T10:55:19.374Z,14.34
2022-09-17T10:58:07.918Z,15.29
2022-09-17T11:00:52.676Z,14.33
2022-09-17T11:03:48.598Z,14.49
2022-09-17T11:06:36.534Z,15.22
2022-09-17T11:09:35.520Z,14.97
2022-09-17T11:12:29.060Z,15.03
2022-09-17T11:15:10.616Z,15.89
2022-09-17T11:17:40.218Z,14.41
2022-09-17T11:20:25.374Z,13.22
2022-09-17T11:23:08.244Z,14.07
2022-09-17T11:25:50.865Z,15.42
2022-09-17T11:28:17.506Z,15.51
2022-09-17T11:30:56.103Z,15.86
2022-09-17T11:33:42.385Z,15.14
2022-09-17T11:36:13.101Z,16.24
2022-09-17T11:38:51.078Z,14.37
2022-09-17T11:41:26.795Z,15.21
2022-09-17T11:44:21.076Z,13.23
2022-09-17T11:47:14.502Z,15.92
2022-09-17T11:49:51.010Z,15.84
2022-09-17T11:52:29.429Z,16.41
2022-09-17T11:55:21.258Z,13.62
2022-09-17T11:57:54.333Z,13.81
2022-09-17T12:00:24.323Z,13.16
2022-09-17T12:03:14.177Z,14.96
2022-09-17T12:05:50.238Z,14.03
2022-09-17T12:08:29.366Z,13.02
2022-09-17T12:11:06.436Z,14.05
2022-09-17T12:13:46.978Z,16.74
2022-09-17T12:16:21.052Z,17.39
2022-09-17T12:19:01.222Z,14.55
2022-09-17T12:21:34.741Z,18.42
2022-09-17T12:24:23.529Z,16.73
2022-09-17T12:27:08.804Z,15.71
2022-09-17T12:29:49.733Z,15.48
2022-09-17T12:32:41.130Z,14.27
2022-09-17T12:35:17.668Z,15.38
2022-09-17T12:37:54.956Z,16.68
2022-09-17T12:40:46.495Z,14.87
2022-09-17T12:43:33.174Z,15.69
2022-09-17T12:46:20.233Z,17.00
2022-09-17T12:49:19.698Z,14.26
2022-09-17T12:51:56.038Z,17.88
2022-09-17T12:54:54.790Z,16.62
2022-09-17T12:57:39.198Z,17.45
2022-09-17T13:00:13.483Z,16.29
2022-09-17T13:03:08.559Z,16.56
2022-09-17T13:05:56.867Z,17.53
2022-09-17T13:08:42.151Z,16.56
2022-09-17T13:11:31.794Z,14.28
2022-09-17T13:14:24.389Z,15.39
2022-09-17T13:17:11.752Z,12.21
2022-09-17T13:19:56.530Z,12.86
2022-09-17T13:22:27.775Z,14.69
2022-09-17T13:25:07.096Z,15.72
2022-09-17T13:27:37.918Z,17.01
2022-09-17T13:30:25.031Z,16.02
2022-09-17T13:32:53.769Z,17.52
2022-09-17T13:35:20.467Z,16.83
2022-09-17T13:37:53.005Z,17.70
2022-09-17T13:40:29.338Z,16.98
2022-09-17T13:43:12.130Z,15.87
2022-09-17T13:46:17.598Z,18.97
2022-09-17T13:48:49.287Z,17.32
2022-09-17T13:51:31.054Z,16.83
2022-09-17T13:54:05.317Z,17.42
2022-09-17T13:57:12.557Z,18.34
2022-09-17T13:59:54.490Z,19.76
2022-09-17T14:02:35.477Z,16.85
2022-09-17T14:05:25.350Z,15.07
2022-09-17T14:08:05.747Z,16.11
2022-09-17T14:10:42.223Z,14.01
2022-09-17T14:13:42.900Z,16.21
2022-09-17T14:16:37.551Z,16.60
2022-09-17T14:19:17.553Z,16.16
2022-09-17T14:22:07.702Z,15.42
2022-09-17T14:24:46.659Z,16.70
2022-09-17T14:27:16.086Z,15.05
2022-09-17T14:30:07.794Z,17.17
2022-09-17T14:33:01.131Z,14.00
2022-09-17T14:35:44.075Z,17.26
2022-09-17T14:38:19.949Z,15.34
2022-09-17T14:41:03.127Z,15.43
2022-09-17T14:43:48.601Z,14.88
2022-09-17T14:46:33.638Z,13.49
2022-09-17T14:49:26.162Z,16.50
2022-09-17T14:51:58.007Z,14.17
2022-09-17T14:54:33.609Z,16.40
2022-09-17T14:57:25.716Z,16.67
2022-09-17T14:59:57.671Z,14.10
2022-09-17T15:02:33.390Z,12.88
2022-09-17T15:05:00.766Z,14.89
2022-09-17T15:07:28.430Z,15.32
2022-09-17T15:10:06.660Z,14.58
2022-09-17T15:12:33.675Z,15.42
2022-09-17T15:15:00.411Z,16.56
2022-09-17T15:17:27.254Z,15.69
2022-09-17T15:19:58.543Z,13.50
2022-09-17T15:22:32.574Z,16.15
2022-09-17T15:25:04.767Z,14.36
2022-09-17T15:27:39.253Z,15.45
2022-09-17T15:30:12.686Z,14.66
2022-09-17T15:32:44.170Z,13.87
2022-09-17T15:35:13.796Z,12.79
2022-09-17T15:38:05.710Z,13.60
2022-09-17T15:40:38.576Z,10.74
2022-09-17T15:43:17.385Z,12.71
2022-09-17T15:45:44.302Z,12.52
2022-09-17T15:48:33.782Z,12.57
2022-09-17T15:51:02.668Z,12.44
2022-09-17T15:53:31.206Z,12.19
2022-09-17T15:56:13.271Z,11.68
2022-09-17T15:58:42.907Z,12.76
2022-09-17T16:01:15.734Z,14.69
2022-09-17T16:03:43.631Z,12.96
2022-09-17T16:06:19.413Z,14.47
2022-09-17T16:08:49.501Z,13.27
2022-09-17T16:11:17.245Z,12.53
2022-09-17T16:13:46.639Z,14.68
2022-09-17T16:16:17.444Z,14.01
2022-09-17T16:18:44.224Z,13.73
2022-09-17T16:21:12.414Z,14.37
2022-09-17T16:23:39.337Z,13.34
2022-09-17T16:26:07.569Z,16.42
2022-09-17T16:28:34.493Z,13.46
2022-09-17T16:31:01.349Z,13.35
2022-09-17T16:33:28.349Z,10.94
2022-09-17T16:35:59.198Z,12.89
2022-09-17T16:38:26.545Z,12.55
2022-09-17T16:40:53.273Z,12.03
2022-09-17T16:43:20.259Z,13.41
2022-09-17T16:46:06.144Z,13.90
2022-09-17T16:48:33.567Z,11.34
2022-09-17T16:51:04.223Z,12.34
2022-09-17T16:53:30.937Z,11.04
2022-09-17T16:55:57.963Z,12.93
2022-09-17T16:58:24.957Z,14.03
2022-09-17T17:00:51.707Z,12.91
2022-09-17T17:03:18.735Z,12.61
2022-09-17T17:05:45.523Z,13.53
2022-09-17T17:08:12.185Z,14.16
2022-09-17T17:10:39.324Z,13.65
2022-09-17T17:13:06.579Z,14.11
2022-09-17T17:15:33.291Z,15.87
2022-09-17T17:17:59.959Z,12.68
2022-09-17T17:20:26.819Z,12.27
2022-09-17T17:22:55.154Z,14.81
2022-09-17T17:25:23.765Z,12.39
2022-09-17T17:27:50.783Z,13.59
2022-09-17T17:30:18.379Z,11.10
2022-09-17T17:32:50.251Z,11.52
2022-09-17T17:35:17.466Z,12.73
2022-09-17T17:37:44.399Z,13.26
2022-09-17T17:40:12.167Z,13.14
2022-09-17T17:42:42.161Z,12.33
2022-09-17T17:45:10.116Z,13.62
2022-09-17T17:47:36.859Z,14.20
2022-09-17T17:50:04.254Z,12.80
2022-09-17T17:52:31.841Z,14.28
2022-09-17T17:54:58.681Z,13.41
2022-09-17T17:57:25.398Z,13.30
2022-09-17T17:59:52.095Z,12.38
2022-09-17T18:02:19.000Z,13.16
2022-09-17T18:04:45.741Z,12.25
2022-09-17T18:07:12.471Z,14.15
2022-09-17T18:09:39.232Z,12.88
2022-09-17T18:12:06.943Z,12.27
2022-09-17T18:14:33.698Z,12.41
2022-09-17T18:17:00.419Z,12.12
2022-09-17T18:19:27.298Z,9.85
2022-09-17T18:21:54.658Z,12.13
2022-09-17T18:24:21.679Z,12.63
2022-09-17T18:26:48.401Z,11.81
2022-09-17T18:29:15.110Z,11.81
2022-09-17T18:31:42.214Z,11.86
2022-09-17T18:34:14.589Z,11.77
2022-09-17T18:36:42.438Z,11.59
2022-09-17T18:42:00.069Z,11.45
2022-09-17T18:44:27.450Z,9.20
2022-09-17T18:46:54.439Z,9.97
2022-09-17T18:49:21.458Z,12.29
2022-09-17T18:51:48.111Z,11.36
2022-09-17T18:54:14.950Z,12.20
2022-09-17T18:56:42.373Z,8.30
2022-09-17T18:59:10.013Z,11.10
2022-09-17T19:01:37.707Z,10.00
2022-09-17T19:04:07.488Z,11.13
2022-09-17T19:06:35.101Z,10.02
2022-09-17T19:09:03.768Z,13.09
2022-09-17T19:11:30.755Z,10.15
2022-09-17T19:13:57.970Z,11.82
2022-09-17T19:16:24.932Z,12.32
2022-09-17T19:18:51.942Z,11.66
2022-09-17T19:21:21.752Z,12.15
2022-09-17T19:23:50.784Z,12.05
2022-09-17T19:26:18.838Z,10.78
2022-09-17T19:28:45.985Z,13.30
2022-09-17T19:31:15.885Z,11.70
2022-09-17T19:33:43.718Z,12.99
2022-09-17T19:36:13.079Z,10.40
2022-09-17T19:38:39.958Z,12.88
2022-09-17T19:41:10.866Z,10.47
2022-09-17T19:43:37.905Z,12.78
2022-09-17T19:46:07.603Z,11.64
2022-09-17T19:48:37.735Z,11.98
2022-09-17T19:51:05.388Z,11.68
2022-09-17T19:53:32.862Z,12.51
2022-09-17T19:56:01.281Z,12.23
2022-09-17T19:58:28.011Z,12.32
2022-09-17T20:00:59.178Z,11.09
2022-09-17T20:03:26.474Z,11.55
2022-09-17T20:06:05.528Z,11.99
2022-09-17T20:08:34.331Z,10.15
2022-09-17T20:11:08.035Z,9.43
2022-09-17T20:13:35.182Z,12.19
2022-09-17T20:16:04.796Z,13.17
2022-09-17T20:18:31.774Z,13.08
2022-09-17T20:20:58.606Z,10.16
2022-09-17T20:23:30.378Z,11.69
2022-09-17T20:25:57.098Z,12.16
2022-09-17T20:28:24.050Z,10.14
2022-09-17T20:30:59.267Z,9.94
2022-09-17T20:33:26.019Z,12.13
2022-09-17T20:36:00.957Z,11.25
2022-09-17T20:41:15.305Z,11.04
2022-09-17T20:43:44.963Z,11.53
2022-09-17T20:46:13.343Z,12.05
2022-09-17T20:48:41.085Z,12.95
2022-09-17T20:51:07.894Z,11.16
2022-09-17T20:53:36.332Z,12.42
2022-09-17T20:56:08.875Z,12.19
2022-09-17T20:58:40.829Z,12.60
2022-09-17T21:01:21.957Z,12.53
2022-09-17T21:03:51.308Z,12.84
2022-09-17T21:06:23.169Z,10.99
2022-09-17T21:08:51.174Z,13.25
2022-09-17T21:11:19.034Z,10.75
2022-09-17T21:13:45.984Z,11.53
2022-09-17T21:16:13.536Z,12.50
2022-09-17T21:18:41.832Z,11.79
2022-09-17T21:21:12.720Z,12.67
2022-09-17T21:23:41.021Z,12.61
2022-09-17T21:26:20.970Z,11.87
2022-09-17T21:28:49.506Z,10.34
2022-09-17T21:31:31.950Z,10.67
2022-09-17T21:34:05.274Z,10.58
2022-09-17T21:36:34.644Z,11.67
2022-09-17T21:39:05.028Z,13.15
2022-09-17T21:41:32.292Z,12.52
2022-09-17T21:43:59.309Z,11.18
2022-09-17T21:46:33.356Z,12.96
2022-09-17T21:49:02.368Z,12.11
2022-09-17T21:51:31.987Z,11.63
2022-09-17T21:54:01.495Z,12.77
2022-09-17T21:56:29.970Z,12.79
2022-09-17T21:58:59.983Z,14.87
2022-09-17T22:01:31.580Z,13.26
2022-09-17T22:03:59.847Z,13.22
2022-09-17T22:06:28.970Z,13.09
2022-09-17T22:08:57.629Z,11.99
2022-09-17T22:11:36.736Z,10.12
2022-09-17T22:14:09.048Z,8.96
2022-09-17T22:16:38.655Z,9.50
2022-09-17T22:19:06.337Z,11.05
2022-09-17T22:21:36.021Z,10.60
2022-09-17T22:24:05.005Z,9.94
2022-09-17T22:26:34.591Z,10.74
2022-09-17T22:29:06.799Z,8.59
2022-09-17T22:31:34.496Z,11.61
2022-09-17T22:34:01.919Z,11.62
2022-09-17T22:36:29.066Z,10.15
2022-09-17T22:38:58.335Z,10.82
2022-09-17T22:41:27.875Z,10.42
2022-09-17T22:44:06.628Z,8.94
2022-09-17T22:46:41.234Z,9.43
2022-09-17T22:49:10.180Z,9.89
2022-09-17T22:51:37.657Z,12.26
2022-09-17T22:54:05.353Z,10.46
2022-09-17T22:56:34.072Z,11.22
2022-09-17T22:59:00.880Z,10.46
2022-09-17T23:01:31.158Z,11.07
2022-09-17T23:03:59.441Z,12.41
2022-09-17T23:06:32.182Z,11.48
2022-09-17T23:08:59.452Z,12.16
2022-09-17T23:11:31.690Z,11.48
2022-09-17T23:14:02.303Z,12.23
2022-09-17T23:16:34.702Z,10.07
2022-09-17T23:19:01.475Z,10.20
2022-09-17T23:21:28.279Z,10.71
2022-09-17T23:23:54.949Z,9.25
2022-09-17T23:26:23.738Z,10.16
2022-09-17T23:28:51.326Z,10.67
2022-09-17T23:31:20.488Z,11.46
2022-09-17T23:33:48.447Z,9.60
2022-09-17T23:36:19.398Z,9.68
2022-09-17T23:38:47.660Z,10.59
2022-09-17T23:41:19.897Z,8.55
2022-09-17T23:43:49.570Z,8.75
2022-09-17T23:46:17.222Z,10.09
2022-09-17T23:48:44.630Z,9.67
2022-09-17T23:51:11.407Z,9.58
2022-09-17T23:53:38.338Z,10.12
2022-09-17T23:56:12.098Z,9.07
2022-09-17T23:58:39.312Z,10.35
